PWSweather.com
Personal Weather Stations
Station Observations
KILMORRI1
Goose Lake, Morris, IL 60450

Goose LakeMorris, IL 60450

Lat: 41.34, Lon: -88.3

Elevation: 523

Station Type:

www.gooselakeweather.com

High Low Average
Temperature 60.5°F15.8°C 19.3°F-7.1°C 46.5°F8.1°C
Dew Point 57.2°F14.0°C 14.7°F-9.6°C 43.6°F6.4°C
Winds 12.7 mph 20.4 kmh 3.5 mph 5.6 kmh 8.0 mph SW12.9 kmh SW
Wind Gusts 20.7 mph33.3 kmh 3.5 mph5.6 kmh 12.0 mph19.3 kmh
Humidity 94% 82% 89%
Pressure 29.94 in1013.9 mb 29.61 in1002.7 mb -
Precipitation 0.25 in6.4 mm - -
Hour Temp Dew Point Humidity Winds Wind Gusts Pressure Precip Precip Rate Daily Precip Total
12:00 AM 53.7°F12.1°C 50.5°F10.3°C 89% 11.5 mph S18.5 kmh S 18.4 mph29.6 kmh 29.75 in1007.5 mb - 0.00 in0.0 mm 0.02 in0.5 mm
12:10 AM 53.8°F12.1°C 50.6°F10.3°C 89% 9.2 mph SSW14.8 kmh SSW 17.3 mph27.8 kmh 29.75 in1007.5 mb - 0.00 in0.0 mm 0.02 in0.5 mm
12:20 AM 53.7°F12.1°C 50.5°F10.3°C 89% 9.2 mph S14.8 kmh S 15.0 mph24.1 kmh 29.75 in1007.5 mb - 0.00 in0.0 mm 0.02 in0.5 mm
12:30 AM 53.5°F11.9°C 50.3°F10.2°C 89% 9.2 mph SSW14.8 kmh SSW 11.5 mph18.5 kmh 29.75 in1007.5 mb - 0.00 in0.0 mm 0.02 in0.5 mm
12:40 AM 53.5°F11.9°C 50.3°F10.2°C 89% 8.1 mph S13.0 kmh S 15.0 mph24.1 kmh 29.75 in1007.5 mb - 0.00 in0.0 mm 0.02 in0.5 mm
12:50 AM 53.5°F11.9°C 50.4°F10.2°C 89% 6.9 mph S11.1 kmh S 15.0 mph24.1 kmh 29.75 in1007.5 mb - 0.00 in0.0 mm 0.02 in0.5 mm
01:00 AM 53.7°F12.1°C 50.5°F10.3°C 89% 8.1 mph S13.0 kmh S 15.0 mph24.1 kmh 29.76 in1007.8 mb - 0.00 in0.0 mm 0.00 in0.0 mm
01:10 AM 53.9°F12.2°C 50.7°F10.4°C 89% 5.8 mph S9.3 kmh S 19.6 mph31.5 kmh 29.75 in1007.5 mb - 0.00 in0.0 mm 0.00 in0.0 mm
01:20 AM 53.9°F12.2°C 51.0°F10.6°C 90% 8.1 mph S13.0 kmh S 11.5 mph18.5 kmh 29.75 in1007.5 mb - 0.00 in0.0 mm 0.00 in0.0 mm
01:30 AM 53.9°F12.2°C 51.0°F10.6°C 90% 8.1 mph S13.0 kmh S 11.5 mph18.5 kmh 29.75 in1007.5 mb - 0.00 in0.0 mm 0.00 in0.0 mm
01:40 AM 54.1°F12.3°C 51.2°F10.7°C 90% 8.1 mph S13.0 kmh S 12.7 mph20.4 kmh 29.75 in1007.5 mb - 0.00 in0.0 mm 0.00 in0.0 mm
01:50 AM 54.2°F12.3°C 51.3°F10.7°C 90% 11.5 mph S18.5 kmh S 19.6 mph31.5 kmh 29.75 in1007.5 mb - 0.00 in0.0 mm 0.00 in0.0 mm
02:00 AM 54.3°F12.4°C 51.4°F10.8°C 90% 9.2 mph S14.8 kmh S 12.7 mph20.4 kmh 29.75 in1007.5 mb - 0.00 in0.0 mm 0.00 in0.0 mm
02:10 AM 54.3°F12.4°C 51.4°F10.8°C 90% 9.2 mph S14.8 kmh S 16.1 mph25.9 kmh 29.76 in1007.8 mb - 0.00 in0.0 mm 0.00 in0.0 mm
02:20 AM 54.3°F12.4°C 51.4°F10.8°C 90% 8.1 mph S13.0 kmh S 13.8 mph22.2 kmh 29.77 in1008.1 mb - 0.00 in0.0 mm 0.00 in0.0 mm
02:30 AM 54.4°F12.4°C 51.5°F10.8°C 90% 9.2 mph SSW14.8 kmh SSW 11.5 mph18.5 kmh 29.77 in1008.1 mb - 0.00 in0.0 mm 0.00 in0.0 mm
02:40 AM 54.2°F12.3°C 51.6°F10.9°C 91% 6.9 mph S11.1 kmh S 9.2 mph14.8 kmh 29.77 in1008.1 mb - 0.00 in0.0 mm 0.00 in0.0 mm
02:50 AM 54.3°F12.4°C 51.7°F10.9°C 91% 5.8 mph S9.3 kmh S 10.4 mph16.7 kmh 29.77 in1008.1 mb - 0.00 in0.0 mm 0.00 in0.0 mm
03:00 AM 54.3°F12.4°C 51.7°F10.9°C 91% 10.4 mph S16.7 kmh S 17.3 mph27.8 kmh 29.77 in1008.1 mb - 0.00 in0.0 mm 0.00 in0.0 mm
03:10 AM 54.4°F12.4°C 51.8°F11.0°C 91% 6.9 mph S11.1 kmh S 9.2 mph14.8 kmh 29.77 in1008.1 mb - 0.00 in0.0 mm 0.00 in0.0 mm
03:20 AM 54.4°F12.4°C 51.5°F10.8°C 90% 5.8 mph S9.3 kmh S 12.7 mph20.4 kmh 29.77 in1008.1 mb - 0.00 in0.0 mm 0.00 in0.0 mm
03:30 AM 54.4°F12.4°C 51.5°F10.8°C 90% 6.9 mph S11.1 kmh S 11.5 mph18.5 kmh 29.77 in1008.1 mb - 0.00 in0.0 mm 0.00 in0.0 mm
03:40 AM 54.4°F12.4°C 51.5°F10.8°C 90% 4.6 mph S7.4 kmh S 11.5 mph18.5 kmh 29.78 in1008.5 mb - 0.00 in0.0 mm 0.00 in0.0 mm
03:50 AM 54.4°F12.4°C 51.5°F10.8°C 90% 6.9 mph S11.1 kmh S 11.5 mph18.5 kmh 29.77 in1008.1 mb - 0.00 in0.0 mm 0.00 in0.0 mm
04:00 AM 54.5°F12.5°C 51.6°F10.9°C 90% 8.1 mph S13.0 kmh S 17.3 mph27.8 kmh 29.77 in1008.1 mb - 0.00 in0.0 mm 0.00 in0.0 mm
04:10 AM 54.6°F12.6°C 51.7°F10.9°C 90% 5.8 mph S9.3 kmh S 6.9 mph11.1 kmh 29.77 in1008.1 mb - 0.00 in0.0 mm 0.00 in0.0 mm
04:20 AM 54.6°F12.6°C 51.7°F10.9°C 90% 10.4 mph S16.7 kmh S 13.8 mph22.2 kmh 29.77 in1008.1 mb - 0.00 in0.0 mm 0.00 in0.0 mm
04:30 AM 54.5°F12.5°C 51.6°F10.9°C 90% 8.1 mph S13.0 kmh S 11.5 mph18.5 kmh 29.77 in1008.1 mb - 0.00 in0.0 mm 0.00 in0.0 mm
04:40 AM 54.5°F12.5°C 51.6°F10.9°C 90% 8.1 mph S13.0 kmh S 12.7 mph20.4 kmh 29.77 in1008.1 mb - 0.00 in0.0 mm 0.00 in0.0 mm
04:50 AM 54.4°F12.4°C 51.5°F10.8°C 90% 6.9 mph S11.1 kmh S 17.3 mph27.8 kmh 29.76 in1007.8 mb - 0.00 in0.0 mm 0.00 in0.0 mm
05:00 AM 54.4°F12.4°C 51.5°F10.8°C 90% 5.8 mph S9.3 kmh S 6.9 mph11.1 kmh 29.77 in1008.1 mb - 0.00 in0.0 mm 0.00 in0.0 mm
05:10 AM 54.5°F12.5°C 51.6°F10.9°C 90% 5.8 mph S9.3 kmh S 11.5 mph18.5 kmh 29.77 in1008.1 mb - 0.00 in0.0 mm 0.00 in0.0 mm
05:20 AM 54.6°F12.6°C 51.7°F10.9°C 90% 6.9 mph S11.1 kmh S 8.1 mph13.0 kmh 29.77 in1008.1 mb - 0.00 in0.0 mm 0.00 in0.0 mm
05:30 AM 54.6°F12.6°C 51.7°F10.9°C 90% 6.9 mph S11.1 kmh S 11.5 mph18.5 kmh 29.77 in1008.1 mb - 0.00 in0.0 mm 0.00 in0.0 mm
05:40 AM 54.6°F12.6°C 51.7°F10.9°C 90% 5.8 mph S9.3 kmh S 13.8 mph22.2 kmh 29.77 in1008.1 mb - 0.00 in0.0 mm 0.00 in0.0 mm
05:50 AM 54.7°F12.6°C 51.8°F11.0°C 90% 3.5 mph S5.6 kmh S 4.6 mph7.4 kmh 29.76 in1007.8 mb - 0.00 in0.0 mm 0.00 in0.0 mm
06:00 AM 54.7°F12.6°C 52.1°F11.2°C 91% 8.1 mph S13.0 kmh S 10.4 mph16.7 kmh 29.76 in1007.8 mb - 0.00 in0.0 mm 0.00 in0.0 mm
06:10 AM 54.6°F12.6°C 52.0°F11.1°C 91% 4.6 mph S7.4 kmh S 11.5 mph18.5 kmh 29.75 in1007.5 mb - 0.00 in0.0 mm 0.00 in0.0 mm
06:20 AM 54.6°F12.6°C 52.0°F11.1°C 91% 8.1 mph S13.0 kmh S 10.4 mph16.7 kmh 29.76 in1007.8 mb - 0.00 in0.0 mm 0.00 in0.0 mm
06:30 AM 54.6°F12.6°C 52.1°F11.2°C 91% 6.9 mph SSW11.1 kmh SSW 12.7 mph20.4 kmh 29.75 in1007.5 mb - 0.00 in0.0 mm 0.00 in0.0 mm
06:40 AM 54.6°F12.6°C 52.3°F11.3°C 92% 6.9 mph S11.1 kmh S 11.5 mph18.5 kmh 29.75 in1007.5 mb - 0.00 in0.0 mm 0.00 in0.0 mm
06:50 AM 54.6°F12.6°C 52.3°F11.3°C 92% 9.2 mph S14.8 kmh S 12.7 mph20.4 kmh 29.75 in1007.5 mb - 0.00 in0.0 mm 0.00 in0.0 mm
07:00 AM 54.6°F12.6°C 52.3°F11.3°C 92% 5.8 mph S9.3 kmh S 6.9 mph11.1 kmh 29.75 in1007.5 mb - 0.00 in0.0 mm 0.00 in0.0 mm
07:10 AM 54.6°F12.6°C 52.3°F11.3°C 92% 5.8 mph S9.3 kmh S 9.2 mph14.8 kmh 29.74 in1007.1 mb - 0.00 in0.0 mm 0.00 in0.0 mm
07:20 AM 54.6°F12.6°C 52.3°F11.3°C 92% 8.1 mph S13.0 kmh S 12.7 mph20.4 kmh 29.74 in1007.1 mb - 0.00 in0.0 mm 0.00 in0.0 mm
07:30 AM 54.6°F12.6°C 52.3°F11.3°C 92% 4.6 mph S7.4 kmh S 11.5 mph18.5 kmh 29.74 in1007.1 mb - 0.00 in0.0 mm 0.00 in0.0 mm
07:40 AM 54.6°F12.6°C 52.3°F11.3°C 92% 5.8 mph S9.3 kmh S 15.0 mph24.1 kmh 29.74 in1007.1 mb - 0.00 in0.0 mm 0.00 in0.0 mm
07:50 AM 54.7°F12.6°C 52.4°F11.3°C 92% 6.9 mph S11.1 kmh S 9.2 mph14.8 kmh 29.73 in1006.8 mb - 0.00 in0.0 mm 0.00 in0.0 mm
08:00 AM 54.7°F12.6°C 52.4°F11.3°C 92% 8.1 mph S13.0 kmh S 13.8 mph22.2 kmh 29.73 in1006.8 mb - 0.00 in0.0 mm 0.00 in0.0 mm
08:10 AM 54.8°F12.7°C 52.5°F11.4°C 92% 4.6 mph SSE7.4 kmh SSE 8.1 mph13.0 kmh 29.73 in1006.8 mb - 0.00 in0.0 mm 0.00 in0.0 mm
08:20 AM 54.9°F12.7°C 52.6°F11.4°C 92% 6.9 mph S11.1 kmh S 13.8 mph22.2 kmh 29.73 in1006.8 mb - 0.00 in0.0 mm 0.00 in0.0 mm
08:30 AM 55.1°F12.8°C 52.8°F11.6°C 92% 6.9 mph S11.1 kmh S 11.5 mph18.5 kmh 29.72 in1006.4 mb - 0.02 in0.5 mm 0.02 in0.5 mm
08:40 AM 55.2°F12.9°C 52.9°F11.6°C 92% 6.9 mph S11.1 kmh S 6.9 mph11.1 kmh 29.72 in1006.4 mb - 0.03 in0.8 mm 0.04 in1.0 mm
08:50 AM 55.2°F12.9°C 52.9°F11.6°C 92% 8.1 mph S13.0 kmh S 16.1 mph25.9 kmh 29.72 in1006.4 mb - 0.00 in0.0 mm 0.04 in1.0 mm
09:00 AM 55.3°F12.9°C 53.0°F11.7°C 92% 8.1 mph S13.0 kmh S 18.4 mph29.6 kmh 29.72 in1006.4 mb - 0.00 in0.0 mm 0.04 in1.0 mm
09:10 AM 55.6°F13.1°C 53.6°F12.0°C 93% 6.9 mph S11.1 kmh S 10.4 mph16.7 kmh 29.72 in1006.4 mb - 0.00 in0.0 mm 0.04 in1.0 mm
09:20 AM 55.9°F13.3°C 53.9°F12.2°C 93% 6.9 mph S11.1 kmh S 10.4 mph16.7 kmh 29.73 in1006.8 mb - 0.00 in0.0 mm 0.04 in1.0 mm
09:30 AM 56.1°F13.4°C 53.8°F12.1°C 92% 9.2 mph S14.8 kmh S 18.4 mph29.6 kmh 29.72 in1006.4 mb - 0.00 in0.0 mm 0.04 in1.0 mm
09:40 AM 56.3°F13.5°C 54.0°F12.2°C 92% 5.8 mph S9.3 kmh S 11.5 mph18.5 kmh 29.72 in1006.4 mb - 0.00 in0.0 mm 0.04 in1.0 mm
09:50 AM 56.4°F13.6°C 54.1°F12.3°C 92% 6.9 mph S11.1 kmh S 10.4 mph16.7 kmh 29.72 in1006.4 mb - 0.00 in0.0 mm 0.04 in1.0 mm
10:00 AM 56.3°F13.5°C 54.0°F12.2°C 92% 6.9 mph SSW11.1 kmh SSW 10.4 mph16.7 kmh 29.72 in1006.4 mb - 0.00 in0.0 mm 0.04 in1.0 mm
10:10 AM 56.1°F13.4°C 53.8°F12.1°C 92% 6.9 mph S11.1 kmh S 10.4 mph16.7 kmh 29.72 in1006.4 mb - 0.00 in0.0 mm 0.04 in1.0 mm
10:20 AM 56.1°F13.4°C 53.8°F12.1°C 92% 8.1 mph S13.0 kmh S 15.0 mph24.1 kmh 29.72 in1006.4 mb - 0.00 in0.0 mm 0.04 in1.0 mm
10:30 AM 56.4°F13.6°C 54.4°F12.4°C 93% 6.9 mph S11.1 kmh S 11.5 mph18.5 kmh 29.72 in1006.4 mb - 0.01 in0.3 mm 0.05 in1.3 mm
10:40 AM 57.0°F13.9°C 55.0°F12.8°C 93% 9.2 mph S14.8 kmh S 18.4 mph29.6 kmh 29.72 in1006.4 mb - 0.00 in0.0 mm 0.05 in1.3 mm
10:50 AM 57.0°F13.9°C 54.7°F12.6°C 92% 6.9 mph S11.1 kmh S 10.4 mph16.7 kmh 29.72 in1006.4 mb - 0.00 in0.0 mm 0.05 in1.3 mm
11:00 AM 57.3°F14.1°C 55.0°F12.8°C 92% 5.8 mph S9.3 kmh S 9.2 mph14.8 kmh 29.72 in1006.4 mb - 0.00 in0.0 mm 0.05 in1.3 mm
11:10 AM 57.5°F14.2°C 55.2°F12.9°C 92% 9.2 mph S14.8 kmh S 17.3 mph27.8 kmh 29.72 in1006.4 mb - 0.00 in0.0 mm 0.05 in1.3 mm
11:20 AM 57.6°F14.2°C 55.0°F12.8°C 91% 10.4 mph S16.7 kmh S 13.8 mph22.2 kmh 29.72 in1006.4 mb - 0.00 in0.0 mm 0.05 in1.3 mm
11:30 AM 57.4°F14.1°C 55.1°F12.8°C 92% 5.8 mph S9.3 kmh S 10.4 mph16.7 kmh 29.71 in1006.1 mb - 0.00 in0.0 mm 0.05 in1.3 mm
11:40 AM 57.2°F14.0°C 54.9°F12.7°C 92% 8.1 mph SSW13.0 kmh SSW 10.4 mph16.7 kmh 29.71 in1006.1 mb - 0.00 in0.0 mm 0.05 in1.3 mm
11:50 AM 56.9°F13.8°C 54.9°F12.7°C 93% 4.6 mph SW7.4 kmh SW 11.5 mph18.5 kmh 29.72 in1006.4 mb - 0.05 in1.3 mm 0.10 in2.5 mm
12:00 PM 56.5°F13.6°C 54.2°F12.3°C 92% 8.1 mph SW13.0 kmh SW 10.4 mph16.7 kmh 29.71 in1006.1 mb - 0.02 in0.5 mm 0.11 in2.8 mm
12:10 PM 56.2°F13.4°C 54.2°F12.3°C 93% 8.1 mph SW13.0 kmh SW 12.7 mph20.4 kmh 29.71 in1006.1 mb - 0.01 in0.3 mm 0.12 in3.0 mm
12:20 PM 56.2°F13.4°C 54.2°F12.3°C 93% 5.8 mph SSW9.3 kmh SSW 6.9 mph11.1 kmh 29.71 in1006.1 mb - 0.00 in0.0 mm 0.12 in3.0 mm
12:30 PM 56.2°F13.4°C 54.2°F12.3°C 93% 4.6 mph S7.4 kmh S 9.2 mph14.8 kmh 29.70 in1005.8 mb - 0.01 in0.3 mm 0.13 in3.3 mm
12:40 PM 56.2°F13.4°C 54.2°F12.3°C 93% 5.8 mph SSW9.3 kmh SSW 8.1 mph13.0 kmh 29.69 in1005.4 mb - 0.00 in0.0 mm 0.13 in3.3 mm
12:50 PM 56.1°F13.4°C 54.1°F12.3°C 93% 4.6 mph SW7.4 kmh SW 5.8 mph9.3 kmh 29.69 in1005.4 mb - 0.00 in0.0 mm 0.13 in3.3 mm
01:00 PM 56.0°F13.3°C 54.0°F12.2°C 93% 4.6 mph SSW7.4 kmh SSW 6.9 mph11.1 kmh 29.68 in1005.1 mb - 0.00 in0.0 mm 0.13 in3.3 mm
01:10 PM 55.7°F13.2°C 53.8°F12.1°C 93% 3.5 mph S5.6 kmh S 4.6 mph7.4 kmh 29.68 in1005.1 mb - 0.01 in0.3 mm 0.14 in3.6 mm
01:20 PM 55.6°F13.1°C 53.6°F12.0°C 93% 3.5 mph SSW5.6 kmh SSW 5.8 mph9.3 kmh 29.67 in1004.7 mb - 0.01 in0.3 mm 0.14 in3.6 mm
01:30 PM 55.5°F13.1°C 53.8°F12.1°C 94% 4.6 mph SSW7.4 kmh SSW 6.9 mph11.1 kmh 29.66 in1004.4 mb - 0.03 in0.8 mm 0.17 in4.3 mm
01:40 PM 55.6°F13.1°C 53.9°F12.2°C 94% 3.5 mph SSW5.6 kmh SSW 3.5 mph5.6 kmh 29.65 in1004.1 mb - 0.01 in0.3 mm 0.17 in4.3 mm
01:50 PM 56.2°F13.4°C 54.5°F12.5°C 94% 4.6 mph S7.4 kmh S 5.8 mph9.3 kmh 29.65 in1004.1 mb - 0.01 in0.3 mm 0.18 in4.6 mm
02:00 PM 56.9°F13.8°C 55.2°F12.9°C 94% 6.9 mph SW11.1 kmh SW 6.9 mph11.1 kmh 29.64 in1003.7 mb - 0.00 in0.0 mm 0.18 in4.6 mm
02:10 PM 57.1°F13.9°C 55.3°F12.9°C 94% 3.5 mph S5.6 kmh S 4.6 mph7.4 kmh 29.64 in1003.7 mb - 0.00 in0.0 mm 0.18 in4.6 mm
02:20 PM 57.5°F14.2°C 55.8°F13.2°C 94% 5.8 mph S9.3 kmh S 11.5 mph18.5 kmh 29.63 in1003.4 mb - 0.00 in0.0 mm 0.18 in4.6 mm
02:30 PM 58.4°F14.7°C 56.4°F13.6°C 93% 5.8 mph SSW9.3 kmh SSW 11.5 mph18.5 kmh 29.63 in1003.4 mb - 0.00 in0.0 mm 0.18 in4.6 mm
02:40 PM 59.5°F15.3°C 57.2°F14.0°C 92% 6.9 mph SSW11.1 kmh SSW 11.5 mph18.5 kmh 29.62 in1003.0 mb - 0.00 in0.0 mm 0.18 in4.6 mm
02:50 PM 59.8°F15.4°C 56.9°F13.8°C 90% 6.9 mph SSW11.1 kmh SSW 11.5 mph18.5 kmh 29.62 in1003.0 mb - 0.00 in0.0 mm 0.18 in4.6 mm
03:00 PM 60.1°F15.6°C 56.9°F13.8°C 89% 5.8 mph SSW9.3 kmh SSW 12.7 mph20.4 kmh 29.62 in1003.0 mb - 0.00 in0.0 mm 0.18 in4.6 mm
03:10 PM 60.5°F15.8°C 57.0°F13.9°C 88% 9.2 mph SSW14.8 kmh SSW 12.7 mph20.4 kmh 29.62 in1003.0 mb - 0.00 in0.0 mm 0.18 in4.6 mm
03:20 PM 60.5°F15.8°C 56.6°F13.7°C 87% 5.8 mph SW9.3 kmh SW 15.0 mph24.1 kmh 29.62 in1003.0 mb - 0.00 in0.0 mm 0.18 in4.6 mm
03:30 PM 60.4°F15.8°C 56.8°F13.8°C 88% 5.8 mph SW9.3 kmh SW 8.1 mph13.0 kmh 29.61 in1002.7 mb - 0.00 in0.0 mm 0.18 in4.6 mm
03:40 PM 60.2°F15.7°C 56.3°F13.5°C 87% 8.1 mph SW13.0 kmh SW 9.2 mph14.8 kmh 29.61 in1002.7 mb - 0.00 in0.0 mm 0.18 in4.6 mm
03:50 PM 59.9°F15.5°C 56.4°F13.6°C 88% 4.6 mph SSW7.4 kmh SSW 8.1 mph13.0 kmh 29.61 in1002.7 mb - 0.00 in0.0 mm 0.18 in4.6 mm
04:00 PM 59.7°F15.4°C 55.8°F13.2°C 87% 6.9 mph SSW11.1 kmh SSW 11.5 mph18.5 kmh 29.61 in1002.7 mb - 0.00 in0.0 mm 0.18 in4.6 mm
04:10 PM 59.3°F15.2°C 55.4°F13.0°C 87% 5.8 mph SW9.3 kmh SW 8.1 mph13.0 kmh 29.61 in1002.7 mb - 0.00 in0.0 mm 0.18 in4.6 mm
04:20 PM 59.0°F15.0°C 55.5°F13.1°C 88% 5.8 mph S9.3 kmh S 8.1 mph13.0 kmh 29.62 in1003.0 mb - 0.00 in0.0 mm 0.18 in4.6 mm
04:30 PM 58.9°F14.9°C 55.6°F13.1°C 89% 6.9 mph SSW11.1 kmh SSW 13.8 mph22.2 kmh 29.62 in1003.0 mb - 0.00 in0.0 mm 0.18 in4.6 mm
04:40 PM 58.9°F14.9°C 55.3°F12.9°C 88% 6.9 mph SSW11.1 kmh SSW 13.8 mph22.2 kmh 29.62 in1003.0 mb - 0.00 in0.0 mm 0.18 in4.6 mm
04:50 PM 58.8°F14.9°C 55.2°F12.9°C 88% 10.4 mph SW16.7 kmh SW 19.6 mph31.5 kmh 29.63 in1003.4 mb - 0.01 in0.3 mm 0.19 in4.8 mm
05:00 PM 54.9°F12.7°C 50.7°F10.4°C 86% 10.4 mph W16.7 kmh W 18.4 mph29.6 kmh 29.65 in1004.1 mb - 0.03 in0.8 mm 0.21 in5.3 mm
05:10 PM 50.8°F10.4°C 46.8°F8.2°C 86% 12.7 mph W20.4 kmh W 20.7 mph33.3 kmh 29.67 in1004.7 mb - 0.02 in0.5 mm 0.23 in5.8 mm
05:20 PM 45.4°F7.4°C 41.2°F5.1°C 85% 9.2 mph WNW14.8 kmh WNW 15.0 mph24.1 kmh 29.68 in1005.1 mb - 0.00 in0.0 mm 0.23 in5.8 mm
05:30 PM 41.8°F5.4°C 38.2°F3.4°C 87% 12.7 mph W20.4 kmh W 19.6 mph31.5 kmh 29.70 in1005.8 mb - 0.00 in0.0 mm 0.23 in5.8 mm
05:40 PM 38.8°F3.8°C 35.6°F2.0°C 88% 11.5 mph W18.5 kmh W 13.8 mph22.2 kmh 29.71 in1006.1 mb - 0.01 in0.3 mm 0.24 in6.1 mm
05:50 PM 36.8°F2.7°C 33.8°F1.0°C 89% 9.2 mph W14.8 kmh W 13.8 mph22.2 kmh 29.73 in1006.8 mb - 0.00 in0.0 mm 0.24 in6.1 mm
06:00 PM 35.4°F1.9°C 32.5°F0.3°C 89% 11.5 mph W18.5 kmh W 18.4 mph29.6 kmh 29.74 in1007.1 mb - 0.00 in0.0 mm 0.24 in6.1 mm
06:10 PM 34.7°F1.5°C 32.0°F0.0°C 90% 8.1 mph W13.0 kmh W 12.7 mph20.4 kmh 29.75 in1007.5 mb - 0.01 in0.3 mm 0.25 in6.4 mm
06:20 PM 33.7°F0.9°C 31.1°F-0.5°C 90% 9.2 mph WNW14.8 kmh WNW 11.5 mph18.5 kmh 29.76 in1007.8 mb - 0.01 in0.3 mm 0.25 in6.4 mm
06:30 PM 33.1°F0.6°C 30.5°F-0.8°C 90% 6.9 mph W11.1 kmh W 11.5 mph18.5 kmh 29.77 in1008.1 mb - 0.00 in0.0 mm 0.25 in6.4 mm
06:40 PM 32.6°F0.3°C 30.0°F-1.1°C 90% 8.1 mph W13.0 kmh W 11.5 mph18.5 kmh 29.78 in1008.5 mb - 0.00 in0.0 mm 0.25 in6.4 mm
06:50 PM 32.2°F0.1°C 29.6°F-1.3°C 90% 8.1 mph WNW13.0 kmh WNW 16.1 mph25.9 kmh 29.78 in1008.5 mb - 0.00 in0.0 mm 0.25 in6.4 mm
07:00 PM 31.5°F-0.3°C 28.9°F-1.7°C 90% 6.9 mph W11.1 kmh W 11.5 mph18.5 kmh 29.78 in1008.5 mb - 0.00 in0.0 mm 0.25 in6.4 mm
07:10 PM 31.1°F-0.5°C 28.5°F-1.9°C 90% 9.2 mph W14.8 kmh W 11.5 mph18.5 kmh 29.79 in1008.8 mb - 0.00 in0.0 mm 0.25 in6.4 mm
07:20 PM 30.6°F-0.8°C 28.0°F-2.2°C 90% 8.1 mph W13.0 kmh W 12.7 mph20.4 kmh 29.80 in1009.1 mb - 0.00 in0.0 mm 0.25 in6.4 mm
07:30 PM 30.3°F-0.9°C 27.4°F-2.6°C 89% 9.2 mph W14.8 kmh W 9.2 mph14.8 kmh 29.82 in1009.8 mb - 0.00 in0.0 mm 0.25 in6.4 mm
07:40 PM 29.6°F-1.3°C 26.8°F-2.9°C 89% 8.1 mph WSW13.0 kmh WSW 11.5 mph18.5 kmh 29.82 in1009.8 mb - 0.00 in0.0 mm 0.25 in6.4 mm
07:50 PM 28.7°F-1.8°C 25.6°F-3.6°C 88% 9.2 mph W14.8 kmh W 13.8 mph22.2 kmh 29.83 in1010.2 mb - 0.00 in0.0 mm 0.25 in6.4 mm
08:00 PM 28.4°F-2.0°C 25.3°F-3.7°C 88% 10.4 mph W16.7 kmh W 16.1 mph25.9 kmh 29.84 in1010.5 mb - 0.00 in0.0 mm 0.25 in6.4 mm
08:10 PM 28.3°F-2.1°C 25.2°F-3.8°C 88% 12.7 mph WNW20.4 kmh WNW 19.6 mph31.5 kmh 29.84 in1010.5 mb - 0.00 in0.0 mm 0.25 in6.4 mm
08:20 PM 27.6°F-2.4°C 24.6°F-4.1°C 88% 11.5 mph W18.5 kmh W 13.8 mph22.2 kmh 29.84 in1010.5 mb - 0.00 in0.0 mm 0.25 in6.4 mm
08:30 PM 27.0°F-2.8°C 24.0°F-4.4°C 88% 9.2 mph W14.8 kmh W 16.1 mph25.9 kmh 29.84 in1010.5 mb - 0.00 in0.0 mm 0.25 in6.4 mm
08:40 PM 26.5°F-3.1°C 23.5°F-4.7°C 88% 12.7 mph W20.4 kmh W 20.7 mph33.3 kmh 29.86 in1011.2 mb - 0.00 in0.0 mm 0.25 in6.4 mm
08:50 PM 26.1°F-3.3°C 23.0°F-5.0°C 88% 10.4 mph W16.7 kmh W 12.7 mph20.4 kmh 29.86 in1011.2 mb - 0.00 in0.0 mm 0.25 in6.4 mm
09:00 PM 25.3°F-3.7°C 22.2°F-5.4°C 88% 11.5 mph W18.5 kmh W 13.8 mph22.2 kmh 29.85 in1010.8 mb - 0.00 in0.0 mm 0.25 in6.4 mm
09:10 PM 24.6°F-4.1°C 21.3°F-5.9°C 87% 6.9 mph NW11.1 kmh NW 18.4 mph29.6 kmh 29.85 in1010.8 mb - 0.00 in0.0 mm 0.25 in6.4 mm
09:20 PM 23.9°F-4.5°C 20.4°F-6.4°C 86% 11.5 mph WNW18.5 kmh WNW 17.3 mph27.8 kmh 29.85 in1010.8 mb - 0.00 in0.0 mm 0.25 in6.4 mm
09:30 PM 23.3°F-4.8°C 19.4°F-7.0°C 85% 11.5 mph NW18.5 kmh NW 17.3 mph27.8 kmh 29.85 in1010.8 mb - 0.00 in0.0 mm 0.25 in6.4 mm
09:40 PM 23.0°F-5.0°C 19.2°F-7.1°C 85% 11.5 mph W18.5 kmh W 16.1 mph25.9 kmh 29.87 in1011.5 mb - 0.00 in0.0 mm 0.25 in6.4 mm
09:50 PM 22.5°F-5.3°C 18.7°F-7.4°C 85% 10.4 mph W16.7 kmh W 13.8 mph22.2 kmh 29.87 in1011.5 mb - 0.00 in0.0 mm 0.25 in6.4 mm
10:00 PM 22.2°F-5.4°C 18.4°F-7.6°C 85% 10.4 mph W16.7 kmh W 13.8 mph22.2 kmh 29.88 in1011.9 mb - 0.00 in0.0 mm 0.25 in6.4 mm
10:10 PM 21.8°F-5.7°C 18.0°F-7.8°C 85% 11.5 mph W18.5 kmh W 12.7 mph20.4 kmh 29.89 in1012.2 mb - 0.00 in0.0 mm 0.25 in6.4 mm
10:20 PM 21.4°F-5.9°C 17.3°F-8.2°C 84% 9.2 mph W14.8 kmh W 16.1 mph25.9 kmh 29.88 in1011.9 mb - 0.00 in0.0 mm 0.25 in6.4 mm
10:30 PM 21.2°F-6.0°C 17.4°F-8.1°C 85% 9.2 mph WNW14.8 kmh WNW 15.0 mph24.1 kmh 29.91 in1012.9 mb - 0.00 in0.0 mm 0.25 in6.4 mm
10:40 PM 21.1°F-6.1°C 17.0°F-8.3°C 84% 8.1 mph W13.0 kmh W 10.4 mph16.7 kmh 29.91 in1012.9 mb - 0.00 in0.0 mm 0.25 in6.4 mm
10:50 PM 20.9°F-6.2°C 16.8°F-8.4°C 84% 10.4 mph W16.7 kmh W 17.3 mph27.8 kmh 29.92 in1013.2 mb - 0.00 in0.0 mm 0.25 in6.4 mm
11:00 PM 20.6°F-6.3°C 16.5°F-8.6°C 84% 6.9 mph W11.1 kmh W 11.5 mph18.5 kmh 29.91 in1012.9 mb - 0.00 in0.0 mm 0.25 in6.4 mm
11:10 PM 20.5°F-6.4°C 16.4°F-8.7°C 84% 8.1 mph W13.0 kmh W 10.4 mph16.7 kmh 29.91 in1012.9 mb - 0.00 in0.0 mm 0.25 in6.4 mm
11:20 PM 20.6°F-6.3°C 16.5°F-8.6°C 84% 8.1 mph NW13.0 kmh NW 19.6 mph31.5 kmh 29.91 in1012.9 mb - 0.00 in0.0 mm 0.25 in6.4 mm
11:30 PM 20.4°F-6.4°C 16.1°F-8.8°C 83% 9.2 mph W14.8 kmh W 12.7 mph20.4 kmh 29.91 in1012.9 mb - 0.00 in0.0 mm 0.25 in6.4 mm
11:40 PM 20.4°F-6.4°C 16.1°F-8.8°C 83% 5.8 mph NW9.3 kmh NW 5.8 mph9.3 kmh 29.93 in1013.5 mb - 0.00 in0.0 mm 0.25 in6.4 mm
11:50 PM 20.2°F-6.6°C 15.9°F-8.9°C 83% 9.2 mph NW14.8 kmh NW 16.1 mph25.9 kmh 29.92 in1013.2 mb - 0.00 in0.0 mm 0.25 in6.4 mm